sensor_id;sensor_type;location;lat;lon;timestamp;P1;durP1;ratioP1;P2;durP2;ratioP2
7493;SDS011;3788;49.902;8.590;2023-02-28T00:01:14;2.67;;;1.90;;
7493;SDS011;3788;49.902;8.590;2023-02-28T00:03:41;2.03;;;1.90;;
7493;SDS011;3788;49.902;8.590;2023-02-28T00:06:09;1.90;;;1.80;;
7493;SDS011;3788;49.902;8.590;2023-02-28T00:08:36;2.00;;;1.83;;
7493;SDS011;3788;49.902;8.590;2023-02-28T00:11:04;1.90;;;1.80;;
7493;SDS011;3788;49.902;8.590;2023-02-28T00:13:33;1.80;;;1.70;;
7493;SDS011;3788;49.902;8.590;2023-02-28T00:16:02;1.90;;;1.70;;
7493;SDS011;3788;49.902;8.590;2023-02-28T00:18:32;1.70;;;1.60;;
7493;SDS011;3788;49.902;8.590;2023-02-28T00:20:59;2.20;;;2.00;;
7493;SDS011;3788;49.902;8.590;2023-02-28T00:23:26;2.57;;;2.03;;
7493;SDS011;3788;49.902;8.590;2023-02-28T00:25:53;2.30;;;1.60;;
7493;SDS011;3788;49.902;8.590;2023-02-28T00:28:20;1.70;;;1.60;;
7493;SDS011;3788;49.902;8.590;2023-02-28T00:30:47;2.63;;;2.43;;
7493;SDS011;3788;49.902;8.590;2023-02-28T00:33:14;2.70;;;1.83;;
7493;SDS011;3788;49.902;8.590;2023-02-28T00:35:42;2.63;;;2.03;;
7493;SDS011;3788;49.902;8.590;2023-02-28T00:38:11;2.17;;;2.00;;
7493;SDS011;3788;49.902;8.590;2023-02-28T00:40:37;2.23;;;2.03;;
7493;SDS011;3788;49.902;8.590;2023-02-28T00:43:04;2.10;;;1.90;;
7493;SDS011;3788;49.902;8.590;2023-02-28T00:45:31;2.40;;;2.00;;
7493;SDS011;3788;49.902;8.590;2023-02-28T00:47:58;1.80;;;1.70;;
7493;SDS011;3788;49.902;8.590;2023-02-28T00:50:25;1.87;;;1.70;;
7493;SDS011;3788;49.902;8.590;2023-02-28T00:52:53;2.17;;;1.97;;
7493;SDS011;3788;49.902;8.590;2023-02-28T00:55:19;2.40;;;1.70;;
7493;SDS011;3788;49.902;8.590;2023-02-28T00:57:46;2.33;;;2.13;;
7493;SDS011;3788;49.902;8.590;2023-02-28T01:00:13;2.63;;;2.10;;
7493;SDS011;3788;49.902;8.590;2023-02-28T01:02:40;1.87;;;1.77;;
7493;SDS011;3788;49.902;8.590;2023-02-28T01:05:07;2.13;;;1.93;;
7493;SDS011;3788;49.902;8.590;2023-02-28T01:07:34;2.00;;;1.90;;
7493;SDS011;3788;49.902;8.590;2023-02-28T01:10:02;2.83;;;2.20;;
7493;SDS011;3788;49.902;8.590;2023-02-28T01:12:30;2.43;;;2.10;;
7493;SDS011;3788;49.902;8.590;2023-02-28T01:14:56;2.07;;;1.90;;
7493;SDS011;3788;49.902;8.590;2023-02-28T01:17:23;2.00;;;1.80;;
7493;SDS011;3788;49.902;8.590;2023-02-28T01:19:52;3.23;;;2.17;;
7493;SDS011;3788;49.902;8.590;2023-02-28T01:22:19;2.17;;;1.97;;
7493;SDS011;3788;49.902;8.590;2023-02-28T01:24:46;1.70;;;1.60;;
7493;SDS011;3788;49.902;8.590;2023-02-28T01:27:14;2.87;;;1.90;;
7493;SDS011;3788;49.902;8.590;2023-02-28T01:29:41;1.80;;;1.70;;
7493;SDS011;3788;49.902;8.590;2023-02-28T01:32:08;2.23;;;1.90;;
7493;SDS011;3788;49.902;8.590;2023-02-28T01:34:34;2.10;;;2.00;;
7493;SDS011;3788;49.902;8.590;2023-02-28T01:37:01;2.27;;;2.03;;
7493;SDS011;3788;49.902;8.590;2023-02-28T01:39:28;2.47;;;2.20;;
7493;SDS011;3788;49.902;8.590;2023-02-28T01:41:55;2.40;;;2.20;;
7493;SDS011;3788;49.902;8.590;2023-02-28T01:47:36;2.73;;;2.23;;
7493;SDS011;3788;49.902;8.590;2023-02-28T01:50:07;2.50;;;2.07;;
7493;SDS011;3788;49.902;8.590;2023-02-28T01:52:39;3.07;;;1.90;;
7493;SDS011;3788;49.902;8.590;2023-02-28T01:55:07;2.50;;;2.20;;
7493;SDS011;3788;49.902;8.590;2023-02-28T01:57:38;2.33;;;2.17;;
7493;SDS011;3788;49.902;8.590;2023-02-28T02:00:10;3.63;;;2.53;;
7493;SDS011;3788;49.902;8.590;2023-02-28T02:02:42;2.30;;;2.10;;
7493;SDS011;3788;49.902;8.590;2023-02-28T02:05:12;2.97;;;2.33;;
7493;SDS011;3788;49.902;8.590;2023-02-28T02:07:42;2.43;;;2.23;;
7493;SDS011;3788;49.902;8.590;2023-02-28T02:10:12;2.13;;;1.93;;
7493;SDS011;3788;49.902;8.590;2023-02-28T02:12:48;2.30;;;2.10;;
7493;SDS011;3788;49.902;8.590;2023-02-28T02:15:29;4.10;;;2.43;;
7493;SDS011;3788;49.902;8.590;2023-02-28T02:18:02;2.80;;;2.27;;
7493;SDS011;3788;49.902;8.590;2023-02-28T02:20:51;2.13;;;2.00;;
7493;SDS011;3788;49.902;8.590;2023-02-28T02:23:47;2.27;;;2.07;;
7493;SDS011;3788;49.902;8.590;2023-02-28T02:26:42;3.87;;;2.20;;
7493;SDS011;3788;49.902;8.590;2023-02-28T02:29:39;3.00;;;2.80;;
7493;SDS011;3788;49.902;8.590;2023-02-28T02:32:39;3.60;;;2.40;;
7493;SDS011;3788;49.902;8.590;2023-02-28T02:35:26;2.80;;;2.60;;
7493;SDS011;3788;49.902;8.590;2023-02-28T02:37:57;2.73;;;2.53;;
7493;SDS011;3788;49.902;8.590;2023-02-28T02:40:35;2.97;;;2.67;;
7493;SDS011;3788;49.902;8.590;2023-02-28T02:43:10;2.73;;;2.53;;
7493;SDS011;3788;49.902;8.590;2023-02-28T02:45:43;3.27;;;2.70;;
7493;SDS011;3788;49.902;8.590;2023-02-28T02:48:16;2.80;;;2.60;;
7493;SDS011;3788;49.902;8.590;2023-02-28T02:50:48;2.87;;;2.63;;
7493;SDS011;3788;49.902;8.590;2023-02-28T02:53:19;2.83;;;2.63;;
7493;SDS011;3788;49.902;8.590;2023-02-28T02:55:53;2.67;;;2.47;;
7493;SDS011;3788;49.902;8.590;2023-02-28T02:58:22;2.60;;;2.40;;
7493;SDS011;3788;49.902;8.590;2023-02-28T03:00:52;2.90;;;2.63;;
7493;SDS011;3788;49.902;8.590;2023-02-28T03:03:23;3.03;;;2.83;;
7493;SDS011;3788;49.902;8.590;2023-02-28T03:05:56;2.60;;;2.40;;
7493;SDS011;3788;49.902;8.590;2023-02-28T03:08:24;2.80;;;2.60;;
7493;SDS011;3788;49.902;8.590;2023-02-28T03:10:52;3.07;;;2.53;;
7493;SDS011;3788;49.902;8.590;2023-02-28T03:13:32;2.77;;;2.50;;
7493;SDS011;3788;49.902;8.590;2023-02-28T03:19:02;2.67;;;2.47;;
7493;SDS011;3788;49.902;8.590;2023-02-28T03:21:40;3.47;;;2.73;;
7493;SDS011;3788;49.902;8.590;2023-02-28T03:24:17;3.23;;;2.40;;
7493;SDS011;3788;49.902;8.590;2023-02-28T03:26:50;2.83;;;2.53;;
7493;SDS011;3788;49.902;8.590;2023-02-28T03:29:21;3.00;;;2.70;;
7493;SDS011;3788;49.902;8.590;2023-02-28T03:31:54;3.33;;;2.93;;
7493;SDS011;3788;49.902;8.590;2023-02-28T03:34:28;3.00;;;2.80;;
7493;SDS011;3788;49.902;8.590;2023-02-28T03:37:00;3.03;;;2.83;;
7493;SDS011;3788;49.902;8.590;2023-02-28T03:39:31;2.87;;;2.60;;
7493;SDS011;3788;49.902;8.590;2023-02-28T03:42:03;3.00;;;2.70;;
7493;SDS011;3788;49.902;8.590;2023-02-28T03:44:35;2.77;;;2.57;;
7493;SDS011;3788;49.902;8.590;2023-02-28T03:47:12;2.80;;;2.60;;
7493;SDS011;3788;49.902;8.590;2023-02-28T03:49:44;2.70;;;2.50;;
7493;SDS011;3788;49.902;8.590;2023-02-28T03:52:16;2.90;;;2.70;;
7493;SDS011;3788;49.902;8.590;2023-02-28T03:54:45;3.13;;;2.83;;
7493;SDS011;3788;49.902;8.590;2023-02-28T03:57:18;3.17;;;2.70;;
7493;SDS011;3788;49.902;8.590;2023-02-28T03:59:53;3.17;;;2.60;;
7493;SDS011;3788;49.902;8.590;2023-02-28T04:02:25;4.13;;;2.73;;
7493;SDS011;3788;49.902;8.590;2023-02-28T04:04:52;3.03;;;2.83;;
7493;SDS011;3788;49.902;8.590;2023-02-28T04:07:19;3.00;;;2.80;;
7493;SDS011;3788;49.902;8.590;2023-02-28T04:09:47;3.80;;;2.97;;
7493;SDS011;3788;49.902;8.590;2023-02-28T04:12:14;3.10;;;2.80;;
7493;SDS011;3788;49.902;8.590;2023-02-28T04:14:40;3.30;;;3.00;;
7493;SDS011;3788;49.902;8.590;2023-02-28T04:17:07;2.97;;;2.67;;
7493;SDS011;3788;49.902;8.590;2023-02-28T04:19:34;2.87;;;2.67;;
7493;SDS011;3788;49.902;8.590;2023-02-28T04:22:01;2.97;;;2.63;;
7493;SDS011;3788;49.902;8.590;2023-02-28T04:24:29;2.90;;;2.70;;
7493;SDS011;3788;49.902;8.590;2023-02-28T04:26:56;2.70;;;2.50;;
7493;SDS011;3788;49.902;8.590;2023-02-28T04:29:24;2.70;;;2.50;;
7493;SDS011;3788;49.902;8.590;2023-02-28T04:31:52;2.63;;;2.43;;
7493;SDS011;3788;49.902;8.590;2023-02-28T04:34:19;4.13;;;3.30;;
7493;SDS011;3788;49.902;8.590;2023-02-28T04:36:46;3.87;;;2.63;;
7493;SDS011;3788;49.902;8.590;2023-02-28T04:39:14;2.87;;;2.60;;
7493;SDS011;3788;49.902;8.590;2023-02-28T04:41:42;3.23;;;2.60;;
7493;SDS011;3788;49.902;8.590;2023-02-28T04:44:09;3.40;;;3.10;;
7493;SDS011;3788;49.902;8.590;2023-02-28T04:46:35;2.90;;;2.70;;
7493;SDS011;3788;49.902;8.590;2023-02-28T04:49:02;3.77;;;2.93;;
7493;SDS011;3788;49.902;8.590;2023-02-28T04:51:29;3.40;;;3.10;;
7493;SDS011;3788;49.902;8.590;2023-02-28T04:53:56;3.00;;;2.70;;
7493;SDS011;3788;49.902;8.590;2023-02-28T04:56:23;3.00;;;2.80;;
7493;SDS011;3788;49.902;8.590;2023-02-28T04:58:52;2.60;;;2.40;;
7493;SDS011;3788;49.902;8.590;2023-02-28T05:01:20;3.20;;;2.63;;
7493;SDS011;3788;49.902;8.590;2023-02-28T05:03:49;3.10;;;2.73;;
7493;SDS011;3788;49.902;8.590;2023-02-28T05:06:17;3.17;;;2.87;;
7493;SDS011;3788;49.902;8.590;2023-02-28T05:08:45;3.97;;;2.80;;
7493;SDS011;3788;49.902;8.590;2023-02-28T05:11:14;3.33;;;3.00;;
7493;SDS011;3788;49.902;8.590;2023-02-28T05:13:43;3.63;;;2.90;;
7493;SDS011;3788;49.902;8.590;2023-02-28T05:16:11;3.10;;;2.80;;
7493;SDS011;3788;49.902;8.590;2023-02-28T05:18:38;3.10;;;2.83;;
7493;SDS011;3788;49.902;8.590;2023-02-28T05:21:05;3.40;;;3.10;;
7493;SDS011;3788;49.902;8.590;2023-02-28T05:23:32;3.33;;;2.77;;
7493;SDS011;3788;49.902;8.590;2023-02-28T05:25:59;4.07;;;3.27;;
7493;SDS011;3788;49.902;8.590;2023-02-28T05:28:26;3.10;;;2.80;;
7493;SDS011;3788;49.902;8.590;2023-02-28T05:30:52;3.17;;;2.87;;
7493;SDS011;3788;49.902;8.590;2023-02-28T05:33:20;4.43;;;3.00;;
7493;SDS011;3788;49.902;8.590;2023-02-28T05:35:47;2.67;;;2.47;;
7493;SDS011;3788;49.902;8.590;2023-02-28T05:38:14;2.60;;;2.40;;
7493;SDS011;3788;49.902;8.590;2023-02-28T05:40:40;3.20;;;2.90;;
7493;SDS011;3788;49.902;8.590;2023-02-28T05:43:09;3.13;;;2.83;;
7493;SDS011;3788;49.902;8.590;2023-02-28T05:45:37;3.63;;;2.60;;
7493;SDS011;3788;49.902;8.590;2023-02-28T05:48:04;2.87;;;2.67;;
7493;SDS011;3788;49.902;8.590;2023-02-28T05:50:32;3.27;;;2.70;;
7493;SDS011;3788;49.902;8.590;2023-02-28T05:52:59;3.10;;;2.80;;
7493;SDS011;3788;49.902;8.590;2023-02-28T05:55:26;3.03;;;2.83;;
7493;SDS011;3788;49.902;8.590;2023-02-28T05:57:53;3.37;;;2.50;;
7493;SDS011;3788;49.902;8.590;2023-02-28T06:00:20;3.23;;;2.60;;
7493;SDS011;3788;49.902;8.590;2023-02-28T06:02:47;2.73;;;2.53;;
7493;SDS011;3788;49.902;8.590;2023-02-28T06:05:14;3.70;;;3.40;;
7493;SDS011;3788;49.902;8.590;2023-02-28T06:07:44;2.50;;;2.30;;
7493;SDS011;3788;49.902;8.590;2023-02-28T06:10:11;3.13;;;2.50;;
7493;SDS011;3788;49.902;8.590;2023-02-28T06:12:39;2.67;;;2.47;;
7493;SDS011;3788;49.902;8.590;2023-02-28T06:15:07;2.63;;;2.43;;
7493;SDS011;3788;49.902;8.590;2023-02-28T06:17:37;3.67;;;2.20;;
7493;SDS011;3788;49.902;8.590;2023-02-28T06:20:04;2.88;;;2.65;;
7493;SDS011;3788;49.902;8.590;2023-02-28T06:22:31;3.20;;;2.90;;
7493;SDS011;3788;49.902;8.590;2023-02-28T06:24:59;2.37;;;2.23;;
7493;SDS011;3788;49.902;8.590;2023-02-28T06:27:26;4.07;;;2.90;;
7493;SDS011;3788;49.902;8.590;2023-02-28T06:29:53;2.93;;;2.63;;
7493;SDS011;3788;49.902;8.590;2023-02-28T06:32:21;3.03;;;2.77;;
7493;SDS011;3788;49.902;8.590;2023-02-28T06:34:48;3.20;;;3.00;;
7493;SDS011;3788;49.902;8.590;2023-02-28T06:37:15;3.10;;;2.70;;
7493;SDS011;3788;49.902;8.590;2023-02-28T06:39:42;2.63;;;2.43;;
7493;SDS011;3788;49.902;8.590;2023-02-28T06:42:10;2.67;;;2.40;;
7493;SDS011;3788;49.902;8.590;2023-02-28T06:44:38;3.10;;;2.60;;
7493;SDS011;3788;49.902;8.590;2023-02-28T06:47:05;2.53;;;2.33;;
7493;SDS011;3788;49.902;8.590;2023-02-28T06:49:33;3.30;;;2.77;;
7493;SDS011;3788;49.902;8.590;2023-02-28T06:52:01;3.30;;;3.03;;
7493;SDS011;3788;49.902;8.590;2023-02-28T06:54:28;3.10;;;2.90;;
7493;SDS011;3788;49.902;8.590;2023-02-28T06:56:55;3.53;;;3.30;;
7493;SDS011;3788;49.902;8.590;2023-02-28T06:59:25;3.70;;;3.40;;
7493;SDS011;3788;49.902;8.590;2023-02-28T07:01:51;3.30;;;3.00;;
7493;SDS011;3788;49.902;8.590;2023-02-28T07:04:19;3.77;;;2.97;;
7493;SDS011;3788;49.902;8.590;2023-02-28T07:06:46;3.33;;;3.03;;
7493;SDS011;3788;49.902;8.590;2023-02-28T07:09:13;3.67;;;3.20;;
7493;SDS011;3788;49.902;8.590;2023-02-28T07:11:40;2.93;;;2.67;;
7493;SDS011;3788;49.902;8.590;2023-02-28T07:14:08;4.33;;;2.77;;
7493;SDS011;3788;49.902;8.590;2023-02-28T07:16:36;5.23;;;2.83;;
7493;SDS011;3788;49.902;8.590;2023-02-28T07:19:03;3.83;;;2.83;;
7493;SDS011;3788;49.902;8.590;2023-02-28T07:21:30;2.97;;;2.63;;
7493;SDS011;3788;49.902;8.590;2023-02-28T07:23:57;2.63;;;2.40;;
7493;SDS011;3788;49.902;8.590;2023-02-28T07:26:24;2.87;;;2.60;;
7493;SDS011;3788;49.902;8.590;2023-02-28T07:28:50;2.50;;;2.30;;
7493;SDS011;3788;49.902;8.590;2023-02-28T07:31:18;2.67;;;2.47;;
7493;SDS011;3788;49.902;8.590;2023-02-28T07:33:46;2.43;;;2.23;;
7493;SDS011;3788;49.902;8.590;2023-02-28T07:36:13;3.47;;;2.53;;
7493;SDS011;3788;49.902;8.590;2023-02-28T07:38:43;3.13;;;2.50;;
7493;SDS011;3788;49.902;8.590;2023-02-28T07:41:11;2.80;;;2.60;;
7493;SDS011;3788;49.902;8.590;2023-02-28T07:43:38;3.50;;;2.30;;
7493;SDS011;3788;49.902;8.590;2023-02-28T07:46:05;3.13;;;2.67;;
7493;SDS011;3788;49.902;8.590;2023-02-28T07:48:34;3.17;;;2.87;;
7493;SDS011;3788;49.902;8.590;2023-02-28T07:51:02;2.63;;;2.43;;
7493;SDS011;3788;49.902;8.590;2023-02-28T07:53:30;2.57;;;2.33;;
7493;SDS011;3788;49.902;8.590;2023-02-28T07:55:57;2.47;;;2.17;;
7493;SDS011;3788;49.902;8.590;2023-02-28T07:58:25;2.50;;;2.13;;
7493;SDS011;3788;49.902;8.590;2023-02-28T08:00:52;2.50;;;2.30;;
7493;SDS011;3788;49.902;8.590;2023-02-28T08:03:20;3.60;;;2.80;;
7493;SDS011;3788;49.902;8.590;2023-02-28T08:05:48;3.43;;;2.63;;
7493;SDS011;3788;49.902;8.590;2023-02-28T08:08:16;3.03;;;2.50;;
7493;SDS011;3788;49.902;8.590;2023-02-28T08:10:43;2.40;;;2.20;;
7493;SDS011;3788;49.902;8.590;2023-02-28T08:13:10;2.90;;;2.17;;
7493;SDS011;3788;49.902;8.590;2023-02-28T08:15:36;2.87;;;2.23;;
7493;SDS011;3788;49.902;8.590;2023-02-28T08:18:04;2.80;;;2.50;;
7493;SDS011;3788;49.902;8.590;2023-02-28T08:20:31;3.27;;;2.60;;
7493;SDS011;3788;49.902;8.590;2023-02-28T08:22:58;3.20;;;2.43;;
7493;SDS011;3788;49.902;8.590;2023-02-28T08:25:26;3.90;;;2.40;;
7493;SDS011;3788;49.902;8.590;2023-02-28T08:27:53;2.43;;;2.23;;
7493;SDS011;3788;49.902;8.590;2023-02-28T08:30:20;2.60;;;2.40;;
7493;SDS011;3788;49.902;8.590;2023-02-28T08:32:46;3.00;;;2.27;;
7493;SDS011;3788;49.902;8.590;2023-02-28T08:35:13;2.70;;;2.10;;
7493;SDS011;3788;49.902;8.590;2023-02-28T08:37:40;2.53;;;2.33;;
7493;SDS011;3788;49.902;8.590;2023-02-28T08:40:07;3.13;;;2.63;;
7493;SDS011;3788;49.902;8.590;2023-02-28T08:42:37;3.17;;;2.57;;
7493;SDS011;3788;49.902;8.590;2023-02-28T08:45:04;2.60;;;2.40;;
7493;SDS011;3788;49.902;8.590;2023-02-28T08:47:32;3.93;;;2.63;;
7493;SDS011;3788;49.902;8.590;2023-02-28T08:49:58;2.60;;;2.40;;
7493;SDS011;3788;49.902;8.590;2023-02-28T08:52:25;2.70;;;2.43;;
7493;SDS011;3788;49.902;8.590;2023-02-28T08:54:52;2.90;;;2.60;;
7493;SDS011;3788;49.902;8.590;2023-02-28T08:57:18;3.70;;;2.20;;
7493;SDS011;3788;49.902;8.590;2023-02-28T08:59:46;2.70;;;2.40;;
7493;SDS011;3788;49.902;8.590;2023-02-28T09:02:13;3.93;;;2.17;;
7493;SDS011;3788;49.902;8.590;2023-02-28T09:04:41;2.83;;;2.50;;
7493;SDS011;3788;49.902;8.590;2023-02-28T09:07:10;3.00;;;2.70;;
7493;SDS011;3788;49.902;8.590;2023-02-28T09:09:37;4.30;;;3.13;;
7493;SDS011;3788;49.902;8.590;2023-02-28T09:12:18;3.13;;;2.53;;
7493;SDS011;3788;49.902;8.590;2023-02-28T09:14:46;2.50;;;2.27;;
7493;SDS011;3788;49.902;8.590;2023-02-28T09:17:13;2.93;;;2.73;;
7493;SDS011;3788;49.902;8.590;2023-02-28T09:19:40;3.30;;;2.63;;
7493;SDS011;3788;49.902;8.590;2023-02-28T09:22:07;3.30;;;2.83;;
7493;SDS011;3788;49.902;8.590;2023-02-28T09:24:35;3.00;;;2.50;;
7493;SDS011;3788;49.902;8.590;2023-02-28T09:27:02;3.90;;;2.50;;
7493;SDS011;3788;49.902;8.590;2023-02-28T09:29:29;3.87;;;3.17;;
7493;SDS011;3788;49.902;8.590;2023-02-28T09:31:57;2.50;;;2.30;;
7493;SDS011;3788;49.902;8.590;2023-02-28T09:34:24;3.63;;;3.03;;
7493;SDS011;3788;49.902;8.590;2023-02-28T09:36:51;3.93;;;3.27;;
7493;SDS011;3788;49.902;8.590;2023-02-28T09:39:19;3.47;;;3.17;;
7493;SDS011;3788;49.902;8.590;2023-02-28T09:41:47;4.37;;;3.27;;
7493;SDS011;3788;49.902;8.590;2023-02-28T09:44:18;4.87;;;3.30;;
7493;SDS011;3788;49.902;8.590;2023-02-28T09:46:53;3.47;;;3.00;;
7493;SDS011;3788;49.902;8.590;2023-02-28T09:49:31;4.80;;;3.43;;
7493;SDS011;3788;49.902;8.590;2023-02-28T09:52:03;5.13;;;3.23;;
7493;SDS011;3788;49.902;8.590;2023-02-28T09:54:34;3.97;;;3.53;;
7493;SDS011;3788;49.902;8.590;2023-02-28T09:57:05;4.50;;;3.53;;
7493;SDS011;3788;49.902;8.590;2023-02-28T10:05:32;4.80;;;3.77;;
7493;SDS011;3788;49.902;8.590;2023-02-28T10:08:05;3.87;;;3.57;;
7493;SDS011;3788;49.902;8.590;2023-02-28T10:10:39;4.30;;;3.70;;
7493;SDS011;3788;49.902;8.590;2023-02-28T10:13:12;3.83;;;3.50;;
7493;SDS011;3788;49.902;8.590;2023-02-28T10:15:43;4.03;;;3.70;;
7493;SDS011;3788;49.902;8.590;2023-02-28T10:18:14;4.20;;;3.77;;
7493;SDS011;3788;49.902;8.590;2023-02-28T10:20:47;4.17;;;3.60;;
7493;SDS011;3788;49.902;8.590;2023-02-28T10:23:17;4.50;;;3.80;;
7493;SDS011;3788;49.902;8.590;2023-02-28T10:25:48;4.33;;;3.47;;
7493;SDS011;3788;49.902;8.590;2023-02-28T10:28:19;5.07;;;3.70;;
7493;SDS011;3788;49.902;8.590;2023-02-28T10:30:47;4.47;;;3.90;;
7493;SDS011;3788;49.902;8.590;2023-02-28T10:33:17;4.90;;;3.80;;
7493;SDS011;3788;49.902;8.590;2023-02-28T10:35:47;5.57;;;3.87;;
7493;SDS011;3788;49.902;8.590;2023-02-28T10:38:16;4.07;;;3.67;;
7493;SDS011;3788;49.902;8.590;2023-02-28T10:40:44;3.67;;;3.33;;
7493;SDS011;3788;49.902;8.590;2023-02-28T10:43:21;4.27;;;3.60;;
7493;SDS011;3788;49.902;8.590;2023-02-28T10:46:01;4.43;;;3.43;;
7493;SDS011;3788;49.902;8.590;2023-02-28T10:48:32;5.60;;;3.97;;
7493;SDS011;3788;49.902;8.590;2023-02-28T10:51:04;5.10;;;3.90;;
7493;SDS011;3788;49.902;8.590;2023-02-28T10:53:34;4.20;;;3.80;;
7493;SDS011;3788;49.902;8.590;2023-02-28T10:56:06;4.80;;;3.40;;
7493;SDS011;3788;49.902;8.590;2023-02-28T10:58:45;5.47;;;3.57;;
7493;SDS011;3788;49.902;8.590;2023-02-28T11:01:15;4.47;;;3.40;;
7493;SDS011;3788;49.902;8.590;2023-02-28T11:03:43;4.30;;;3.60;;
7493;SDS011;3788;49.902;8.590;2023-02-28T11:06:14;4.00;;;3.23;;
7493;SDS011;3788;49.902;8.590;2023-02-28T11:08:49;4.33;;;3.67;;
7493;SDS011;3788;49.902;8.590;2023-02-28T11:11:18;4.03;;;3.50;;
7493;SDS011;3788;49.902;8.590;2023-02-28T11:13:48;3.90;;;3.60;;
7493;SDS011;3788;49.902;8.590;2023-02-28T11:16:19;3.80;;;3.50;;
7493;SDS011;3788;49.902;8.590;2023-02-28T11:18:48;5.03;;;4.03;;
7493;SDS011;3788;49.902;8.590;2023-02-28T11:21:19;5.03;;;4.00;;
7493;SDS011;3788;49.902;8.590;2023-02-28T11:23:50;4.77;;;3.73;;
7493;SDS011;3788;49.902;8.590;2023-02-28T11:26:40;7.40;;;3.93;;
7493;SDS011;3788;49.902;8.590;2023-02-28T11:29:11;3.70;;;3.33;;
7493;SDS011;3788;49.902;8.590;2023-02-28T11:31:45;4.53;;;3.80;;
7493;SDS011;3788;49.902;8.590;2023-02-28T11:34:28;4.80;;;3.43;;
7493;SDS011;3788;49.902;8.590;2023-02-28T11:36:57;5.00;;;3.90;;
7493;SDS011;3788;49.902;8.590;2023-02-28T11:39:29;5.13;;;4.27;;
7493;SDS011;3788;49.902;8.590;2023-02-28T11:42:06;4.77;;;3.63;;
7493;SDS011;3788;49.902;8.590;2023-02-28T11:44:54;5.13;;;3.90;;
7493;SDS011;3788;49.902;8.590;2023-02-28T11:47:31;4.40;;;3.97;;
7493;SDS011;3788;49.902;8.590;2023-02-28T11:50:13;4.53;;;3.57;;
7493;SDS011;3788;49.902;8.590;2023-02-28T11:52:54;4.17;;;3.70;;
7493;SDS011;3788;49.902;8.590;2023-02-28T11:55:24;4.43;;;3.80;;
7493;SDS011;3788;49.902;8.590;2023-02-28T11:58:00;5.57;;;4.13;;
7493;SDS011;3788;49.902;8.590;2023-02-28T12:00:43;4.00;;;3.50;;
7493;SDS011;3788;49.902;8.590;2023-02-28T12:03:25;5.13;;;3.57;;
7493;SDS011;3788;49.902;8.590;2023-02-28T12:05:56;4.90;;;4.23;;
7493;SDS011;3788;49.902;8.590;2023-02-28T12:08:37;4.53;;;4.03;;
7493;SDS011;3788;49.902;8.590;2023-02-28T12:11:15;3.90;;;3.60;;
7493;SDS011;3788;49.902;8.590;2023-02-28T12:13:54;4.17;;;3.50;;
7493;SDS011;3788;49.902;8.590;2023-02-28T12:16:35;4.37;;;3.97;;
7493;SDS011;3788;49.902;8.590;2023-02-28T12:19:16;4.00;;;3.60;;
7493;SDS011;3788;49.902;8.590;2023-02-28T12:21:56;4.07;;;3.67;;
7493;SDS011;3788;49.902;8.590;2023-02-28T12:24:42;4.00;;;3.60;;
7493;SDS011;3788;49.902;8.590;2023-02-28T12:27:23;4.30;;;3.43;;
7493;SDS011;3788;49.902;8.590;2023-02-28T12:29:54;6.47;;;3.53;;
7493;SDS011;3788;49.902;8.590;2023-02-28T12:32:25;4.53;;;3.97;;
7493;SDS011;3788;49.902;8.590;2023-02-28T12:34:57;3.93;;;3.53;;
7493;SDS011;3788;49.902;8.590;2023-02-28T12:37:28;4.30;;;3.80;;
7493;SDS011;3788;49.902;8.590;2023-02-28T12:40:05;5.07;;;3.90;;
7493;SDS011;3788;49.902;8.590;2023-02-28T12:42:39;5.17;;;3.77;;
7493;SDS011;3788;49.902;8.590;2023-02-28T12:45:10;4.77;;;3.77;;
7493;SDS011;3788;49.902;8.590;2023-02-28T12:47:40;5.10;;;4.53;;
7493;SDS011;3788;49.902;8.590;2023-02-28T12:50:11;4.87;;;4.23;;
7493;SDS011;3788;49.902;8.590;2023-02-28T12:52:40;4.07;;;3.77;;
7493;SDS011;3788;49.902;8.590;2023-02-28T12:55:15;5.13;;;3.80;;
7493;SDS011;3788;49.902;8.590;2023-02-28T12:57:50;5.93;;;4.27;;
7493;SDS011;3788;49.902;8.590;2023-02-28T13:00:25;4.63;;;4.00;;
7493;SDS011;3788;49.902;8.590;2023-02-28T13:03:09;4.90;;;4.23;;
7493;SDS011;3788;49.902;8.590;2023-02-28T13:06:03;4.30;;;3.90;;
7493;SDS011;3788;49.902;8.590;2023-02-28T13:11:32;5.70;;;4.30;;
7493;SDS011;3788;49.902;8.590;2023-02-28T13:14:05;6.33;;;4.43;;
7493;SDS011;3788;49.902;8.590;2023-02-28T13:19:36;4.87;;;4.03;;
7493;SDS011;3788;49.902;8.590;2023-02-28T13:22:05;4.33;;;3.83;;
7493;SDS011;3788;49.902;8.590;2023-02-28T13:24:43;5.57;;;4.43;;
7493;SDS011;3788;49.902;8.590;2023-02-28T13:33:20;6.00;;;4.60;;
7493;SDS011;3788;49.902;8.590;2023-02-28T13:36:00;4.77;;;4.23;;
7493;SDS011;3788;49.902;8.590;2023-02-28T13:38:35;4.43;;;4.03;;
7493;SDS011;3788;49.902;8.590;2023-02-28T13:44:12;4.90;;;4.50;;
7493;SDS011;3788;49.902;8.590;2023-02-28T13:49:42;5.00;;;4.33;;
7493;SDS011;3788;49.902;8.590;2023-02-28T13:52:11;5.60;;;4.87;;
7493;SDS011;3788;49.902;8.590;2023-02-28T13:54:45;5.03;;;4.40;;
7493;SDS011;3788;49.902;8.590;2023-02-28T13:57:43;4.70;;;4.20;;
7493;SDS011;3788;49.902;8.590;2023-02-28T14:00:23;4.97;;;4.03;;
7493;SDS011;3788;49.902;8.590;2023-02-28T14:03:16;5.73;;;4.47;;
7493;SDS011;3788;49.902;8.590;2023-02-28T14:06:09;4.90;;;4.40;;
7493;SDS011;3788;49.902;8.590;2023-02-28T14:08:49;4.77;;;4.33;;
7493;SDS011;3788;49.902;8.590;2023-02-28T14:11:28;5.60;;;4.57;;
7493;SDS011;3788;49.902;8.590;2023-02-28T14:13:57;5.17;;;4.67;;
7493;SDS011;3788;49.902;8.590;2023-02-28T14:16:27;6.03;;;4.10;;
7493;SDS011;3788;49.902;8.590;2023-02-28T14:19:05;5.37;;;3.93;;
7493;SDS011;3788;49.902;8.590;2023-02-28T14:21:38;4.97;;;4.10;;
7493;SDS011;3788;49.902;8.590;2023-02-28T14:24:16;6.03;;;4.93;;
7493;SDS011;3788;49.902;8.590;2023-02-28T14:27:11;5.30;;;4.10;;
7493;SDS011;3788;49.902;8.590;2023-02-28T14:32:59;5.20;;;4.30;;
7493;SDS011;3788;49.902;8.590;2023-02-28T14:35:44;6.83;;;4.60;;
7493;SDS011;3788;49.902;8.590;2023-02-28T14:38:31;6.37;;;4.80;;
7493;SDS011;3788;49.902;8.590;2023-02-28T14:41:03;5.80;;;4.50;;
7493;SDS011;3788;49.902;8.590;2023-02-28T14:43:32;4.50;;;4.10;;
7493;SDS011;3788;49.902;8.590;2023-02-28T14:46:00;6.27;;;3.93;;
7493;SDS011;3788;49.902;8.590;2023-02-28T14:48:29;4.70;;;4.20;;
7493;SDS011;3788;49.902;8.590;2023-02-28T14:50:57;5.17;;;4.20;;
7493;SDS011;3788;49.902;8.590;2023-02-28T14:53:25;5.20;;;3.97;;
7493;SDS011;3788;49.902;8.590;2023-02-28T14:55:55;5.57;;;4.27;;
7493;SDS011;3788;49.902;8.590;2023-02-28T14:58:23;4.80;;;4.30;;
7493;SDS011;3788;49.902;8.590;2023-02-28T15:00:54;4.87;;;4.17;;
7493;SDS011;3788;49.902;8.590;2023-02-28T15:03:22;4.57;;;4.17;;
7493;SDS011;3788;49.902;8.590;2023-02-28T15:05:52;4.70;;;4.03;;
7493;SDS011;3788;49.902;8.590;2023-02-28T15:08:20;4.77;;;4.00;;
7493;SDS011;3788;49.902;8.590;2023-02-28T15:10:50;4.83;;;4.33;;
7493;SDS011;3788;49.902;8.590;2023-02-28T15:13:20;5.83;;;4.33;;
7493;SDS011;3788;49.902;8.590;2023-02-28T15:15:48;6.27;;;5.00;;
7493;SDS011;3788;49.902;8.590;2023-02-28T15:18:22;5.40;;;4.77;;
7493;SDS011;3788;49.902;8.590;2023-02-28T15:20:55;4.53;;;4.23;;
7493;SDS011;3788;49.902;8.590;2023-02-28T15:23:25;5.63;;;4.30;;
7493;SDS011;3788;49.902;8.590;2023-02-28T15:25:52;4.73;;;4.23;;
7493;SDS011;3788;49.902;8.590;2023-02-28T15:28:20;7.37;;;4.90;;
7493;SDS011;3788;49.902;8.590;2023-02-28T15:30:56;5.87;;;4.37;;
7493;SDS011;3788;49.902;8.590;2023-02-28T15:33:25;4.57;;;4.13;;
7493;SDS011;3788;49.902;8.590;2023-02-28T15:36:05;5.73;;;4.90;;
7493;SDS011;3788;49.902;8.590;2023-02-28T15:38:37;5.87;;;4.30;;
7493;SDS011;3788;49.902;8.590;2023-02-28T15:41:04;6.00;;;4.87;;
7493;SDS011;3788;49.902;8.590;2023-02-28T15:43:33;5.23;;;4.47;;
7493;SDS011;3788;49.902;8.590;2023-02-28T15:46:02;5.20;;;4.70;;
7493;SDS011;3788;49.902;8.590;2023-02-28T15:48:31;4.80;;;4.30;;
7493;SDS011;3788;49.902;8.590;2023-02-28T15:51:02;5.17;;;4.67;;
7493;SDS011;3788;49.902;8.590;2023-02-28T15:53:36;5.20;;;4.13;;
7493;SDS011;3788;49.902;8.590;2023-02-28T15:56:22;5.30;;;4.70;;
7493;SDS011;3788;49.902;8.590;2023-02-28T15:58:53;6.03;;;4.83;;
7493;SDS011;3788;49.902;8.590;2023-02-28T16:01:23;5.80;;;5.00;;
7493;SDS011;3788;49.902;8.590;2023-02-28T16:03:53;5.43;;;4.90;;
7493;SDS011;3788;49.902;8.590;2023-02-28T16:06:26;6.67;;;4.57;;
7493;SDS011;3788;49.902;8.590;2023-02-28T16:09:02;7.40;;;4.80;;
7493;SDS011;3788;49.902;8.590;2023-02-28T16:11:32;7.47;;;5.40;;